sensor_id;sensor_type;location;lat;lon;timestamp;P1;durP1;ratioP1;P2;durP2;ratioP2
44893;SDS011;30625;52.206;21.030;2023-03-01T00:01:27;78.22;;;32.30;;
44893;SDS011;30625;52.206;21.030;2023-03-01T00:03:55;67.70;;;29.45;;
44893;SDS011;30625;52.206;21.030;2023-03-01T00:06:22;68.47;;;32.42;;
44893;SDS011;30625;52.206;21.030;2023-03-01T00:08:47;71.97;;;30.23;;
44893;SDS011;30625;52.206;21.030;2023-03-01T00:11:18;70.20;;;30.13;;
44893;SDS011;30625;52.206;21.030;2023-03-01T00:13:46;66.90;;;30.05;;
44893;SDS011;30625;52.206;21.030;2023-03-01T00:16:18;66.53;;;28.95;;
44893;SDS011;30625;52.206;21.030;2023-03-01T00:18:46;72.20;;;31.10;;
44893;SDS011;30625;52.206;21.030;2023-03-01T00:21:12;76.22;;;32.25;;
44893;SDS011;30625;52.206;21.030;2023-03-01T00:23:38;63.25;;;28.90;;
44893;SDS011;30625;52.206;21.030;2023-03-01T00:28:31;72.43;;;31.05;;
44893;SDS011;30625;52.206;21.030;2023-03-01T00:31:02;74.25;;;30.30;;
44893;SDS011;30625;52.206;21.030;2023-03-01T00:33:30;71.43;;;29.17;;
44893;SDS011;30625;52.206;21.030;2023-03-01T00:35:57;63.53;;;27.80;;
44893;SDS011;30625;52.206;21.030;2023-03-01T00:38:24;68.72;;;30.02;;
44893;SDS011;30625;52.206;21.030;2023-03-01T00:40:49;63.85;;;30.83;;
44893;SDS011;30625;52.206;21.030;2023-03-01T00:43:15;73.32;;;31.92;;
44893;SDS011;30625;52.206;21.030;2023-03-01T00:45:40;74.70;;;32.22;;
44893;SDS011;30625;52.206;21.030;2023-03-01T00:48:06;77.03;;;31.48;;
44893;SDS011;30625;52.206;21.030;2023-03-01T00:50:32;78.32;;;33.20;;
44893;SDS011;30625;52.206;21.030;2023-03-01T00:52:57;63.75;;;28.05;;
44893;SDS011;30625;52.206;21.030;2023-03-01T00:55:23;69.40;;;29.15;;
44893;SDS011;30625;52.206;21.030;2023-03-01T00:57:49;79.28;;;32.85;;
44893;SDS011;30625;52.206;21.030;2023-03-01T01:00:16;66.53;;;30.42;;
44893;SDS011;30625;52.206;21.030;2023-03-01T01:02:42;81.55;;;33.35;;
44893;SDS011;30625;52.206;21.030;2023-03-01T01:05:08;71.65;;;31.17;;
44893;SDS011;30625;52.206;21.030;2023-03-01T01:07:33;72.40;;;30.23;;
44893;SDS011;30625;52.206;21.030;2023-03-01T01:09:59;70.70;;;31.13;;
44893;SDS011;30625;52.206;21.030;2023-03-01T01:12:25;62.80;;;29.23;;
44893;SDS011;30625;52.206;21.030;2023-03-01T01:14:50;66.80;;;27.77;;
44893;SDS011;30625;52.206;21.030;2023-03-01T01:17:16;71.68;;;29.95;;
44893;SDS011;30625;52.206;21.030;2023-03-01T01:19:41;64.85;;;29.15;;
44893;SDS011;30625;52.206;21.030;2023-03-01T01:22:07;66.53;;;27.10;;
44893;SDS011;30625;52.206;21.030;2023-03-01T01:24:32;63.65;;;28.35;;
44893;SDS011;30625;52.206;21.030;2023-03-01T01:26:58;66.05;;;27.67;;
44893;SDS011;30625;52.206;21.030;2023-03-01T01:29:24;74.20;;;29.73;;
44893;SDS011;30625;52.206;21.030;2023-03-01T01:31:49;65.00;;;28.35;;
44893;SDS011;30625;52.206;21.030;2023-03-01T01:34:16;66.15;;;29.70;;
44893;SDS011;30625;52.206;21.030;2023-03-01T01:36:44;63.58;;;29.20;;
44893;SDS011;30625;52.206;21.030;2023-03-01T01:39:13;62.78;;;27.02;;
44893;SDS011;30625;52.206;21.030;2023-03-01T01:41:40;60.70;;;27.33;;
44893;SDS011;30625;52.206;21.030;2023-03-01T01:46:53;64.65;;;26.73;;
44893;SDS011;30625;52.206;21.030;2023-03-01T01:49:33;64.00;;;28.00;;
44893;SDS011;30625;52.206;21.030;2023-03-01T01:52:29;67.43;;;28.67;;
44893;SDS011;30625;52.206;21.030;2023-03-01T01:57:29;66.10;;;25.70;;
44893;SDS011;30625;52.206;21.030;2023-03-01T02:00:00;57.95;;;26.95;;
44893;SDS011;30625;52.206;21.030;2023-03-01T02:02:29;59.30;;;27.23;;
44893;SDS011;30625;52.206;21.030;2023-03-01T02:07:35;59.47;;;26.23;;
44893;SDS011;30625;52.206;21.030;2023-03-01T02:10:04;60.83;;;27.17;;
44893;SDS011;30625;52.206;21.030;2023-03-01T02:12:29;60.72;;;26.90;;
44893;SDS011;30625;52.206;21.030;2023-03-01T02:14:56;64.53;;;27.90;;
44893;SDS011;30625;52.206;21.030;2023-03-01T02:17:22;68.70;;;27.15;;
44893;SDS011;30625;52.206;21.030;2023-03-01T02:22:32;65.80;;;27.08;;
44893;SDS011;30625;52.206;21.030;2023-03-01T02:27:49;63.15;;;26.17;;
44893;SDS011;30625;52.206;21.030;2023-03-01T02:30:30;67.72;;;28.50;;
44893;SDS011;30625;52.206;21.030;2023-03-01T02:32:57;67.75;;;29.50;;
44893;SDS011;30625;52.206;21.030;2023-03-01T02:35:29;67.35;;;29.13;;
44893;SDS011;30625;52.206;21.030;2023-03-01T02:37:58;64.88;;;28.25;;
44893;SDS011;30625;52.206;21.030;2023-03-01T02:40:25;64.13;;;26.98;;
44893;SDS011;30625;52.206;21.030;2023-03-01T02:42:54;66.15;;;28.67;;
44893;SDS011;30625;52.206;21.030;2023-03-01T02:45:23;68.13;;;29.35;;
44893;SDS011;30625;52.206;21.030;2023-03-01T02:47:50;66.88;;;29.42;;
44893;SDS011;30625;52.206;21.030;2023-03-01T02:53:07;66.40;;;27.27;;
44893;SDS011;30625;52.206;21.030;2023-03-01T02:55:56;62.17;;;27.73;;
44893;SDS011;30625;52.206;21.030;2023-03-01T02:58:22;69.00;;;29.25;;
44893;SDS011;30625;52.206;21.030;2023-03-01T03:00:48;69.78;;;29.50;;
44893;SDS011;30625;52.206;21.030;2023-03-01T03:03:15;71.22;;;29.10;;
44893;SDS011;30625;52.206;21.030;2023-03-01T03:05:43;68.75;;;30.05;;
44893;SDS011;30625;52.206;21.030;2023-03-01T03:08:09;62.15;;;28.13;;
44893;SDS011;30625;52.206;21.030;2023-03-01T03:10:37;62.72;;;26.73;;
44893;SDS011;30625;52.206;21.030;2023-03-01T03:13:12;76.53;;;30.73;;
44893;SDS011;30625;52.206;21.030;2023-03-01T03:15:39;64.47;;;28.52;;
44893;SDS011;30625;52.206;21.030;2023-03-01T03:18:07;64.78;;;27.83;;
44893;SDS011;30625;52.206;21.030;2023-03-01T03:20:35;67.65;;;28.08;;
44893;SDS011;30625;52.206;21.030;2023-03-01T03:23:03;67.88;;;27.20;;
44893;SDS011;30625;52.206;21.030;2023-03-01T03:25:28;69.85;;;29.77;;
44893;SDS011;30625;52.206;21.030;2023-03-01T03:27:55;67.90;;;29.75;;
44893;SDS011;30625;52.206;21.030;2023-03-01T03:30:26;63.97;;;27.75;;
44893;SDS011;30625;52.206;21.030;2023-03-01T03:32:53;67.70;;;27.70;;
44893;SDS011;30625;52.206;21.030;2023-03-01T03:35:21;66.32;;;27.73;;
44893;SDS011;30625;52.206;21.030;2023-03-01T03:37:58;65.28;;;28.27;;
44893;SDS011;30625;52.206;21.030;2023-03-01T03:40:38;57.63;;;26.23;;
44893;SDS011;30625;52.206;21.030;2023-03-01T03:43:09;66.72;;;28.08;;
44893;SDS011;30625;52.206;21.030;2023-03-01T03:45:39;68.75;;;27.80;;
44893;SDS011;30625;52.206;21.030;2023-03-01T03:48:05;61.72;;;25.10;;
44893;SDS011;30625;52.206;21.030;2023-03-01T03:50:33;60.15;;;27.20;;
44893;SDS011;30625;52.206;21.030;2023-03-01T03:53:03;63.03;;;27.30;;
44893;SDS011;30625;52.206;21.030;2023-03-01T03:55:30;63.47;;;27.40;;
44893;SDS011;30625;52.206;21.030;2023-03-01T03:58:00;63.58;;;28.20;;
44893;SDS011;30625;52.206;21.030;2023-03-01T04:00:32;64.47;;;27.00;;
44893;SDS011;30625;52.206;21.030;2023-03-01T04:03:08;64.85;;;27.33;;
44893;SDS011;30625;52.206;21.030;2023-03-01T04:05:35;64.57;;;27.67;;
44893;SDS011;30625;52.206;21.030;2023-03-01T04:08:02;67.00;;;28.45;;
44893;SDS011;30625;52.206;21.030;2023-03-01T04:12:54;61.80;;;26.75;;
44893;SDS011;30625;52.206;21.030;2023-03-01T04:15:23;65.07;;;26.90;;
44893;SDS011;30625;52.206;21.030;2023-03-01T04:17:51;60.97;;;25.75;;
44893;SDS011;30625;52.206;21.030;2023-03-01T04:20:19;64.15;;;27.30;;
44893;SDS011;30625;52.206;21.030;2023-03-01T04:22:49;60.83;;;27.02;;
44893;SDS011;30625;52.206;21.030;2023-03-01T04:25:16;70.60;;;28.27;;
44893;SDS011;30625;52.206;21.030;2023-03-01T04:27:42;68.72;;;29.00;;
44893;SDS011;30625;52.206;21.030;2023-03-01T04:30:09;63.35;;;27.77;;
44893;SDS011;30625;52.206;21.030;2023-03-01T04:32:35;57.20;;;26.27;;
44893;SDS011;30625;52.206;21.030;2023-03-01T04:35:00;64.35;;;26.80;;
44893;SDS011;30625;52.206;21.030;2023-03-01T04:37:26;62.83;;;26.70;;
44893;SDS011;30625;52.206;21.030;2023-03-01T04:39:52;60.17;;;28.23;;
44893;SDS011;30625;52.206;21.030;2023-03-01T04:42:18;62.85;;;27.90;;
44893;SDS011;30625;52.206;21.030;2023-03-01T04:44:45;60.13;;;26.92;;
44893;SDS011;30625;52.206;21.030;2023-03-01T04:47:11;66.18;;;28.38;;
44893;SDS011;30625;52.206;21.030;2023-03-01T04:49:37;63.28;;;28.00;;
44893;SDS011;30625;52.206;21.030;2023-03-01T04:52:03;66.82;;;29.08;;
44893;SDS011;30625;52.206;21.030;2023-03-01T04:54:31;66.22;;;28.20;;
44893;SDS011;30625;52.206;21.030;2023-03-01T04:56:57;70.40;;;30.70;;
44893;SDS011;30625;52.206;21.030;2023-03-01T05:01:50;67.72;;;28.55;;
44893;SDS011;30625;52.206;21.030;2023-03-01T05:04:16;58.78;;;26.25;;
44893;SDS011;30625;52.206;21.030;2023-03-01T05:06:42;61.30;;;27.65;;
44893;SDS011;30625;52.206;21.030;2023-03-01T05:09:08;74.93;;;30.98;;
44893;SDS011;30625;52.206;21.030;2023-03-01T05:11:33;59.60;;;27.45;;
44893;SDS011;30625;52.206;21.030;2023-03-01T05:14:07;66.93;;;29.67;;
44893;SDS011;30625;52.206;21.030;2023-03-01T05:16:33;60.90;;;26.45;;
44893;SDS011;30625;52.206;21.030;2023-03-01T05:18:59;71.80;;;28.17;;
44893;SDS011;30625;52.206;21.030;2023-03-01T05:23:50;59.25;;;25.60;;
44893;SDS011;30625;52.206;21.030;2023-03-01T05:26:17;61.35;;;26.77;;
44893;SDS011;30625;52.206;21.030;2023-03-01T05:28:44;64.45;;;28.25;;
44893;SDS011;30625;52.206;21.030;2023-03-01T05:31:10;74.60;;;28.92;;
44893;SDS011;30625;52.206;21.030;2023-03-01T05:33:39;67.80;;;28.90;;
44893;SDS011;30625;52.206;21.030;2023-03-01T05:36:06;67.32;;;28.30;;
44893;SDS011;30625;52.206;21.030;2023-03-01T05:38:34;64.65;;;27.45;;
44893;SDS011;30625;52.206;21.030;2023-03-01T05:41:00;64.90;;;27.70;;
44893;SDS011;30625;52.206;21.030;2023-03-01T05:43:26;70.72;;;29.27;;
44893;SDS011;30625;52.206;21.030;2023-03-01T05:45:58;52.38;;;25.02;;
44893;SDS011;30625;52.206;21.030;2023-03-01T05:48:24;74.22;;;29.50;;
44893;SDS011;30625;52.206;21.030;2023-03-01T05:50:50;64.70;;;28.33;;
44893;SDS011;30625;52.206;21.030;2023-03-01T05:53:17;64.25;;;28.23;;
44893;SDS011;30625;52.206;21.030;2023-03-01T05:55:46;62.55;;;27.83;;
44893;SDS011;30625;52.206;21.030;2023-03-01T05:58:16;65.43;;;26.77;;
44893;SDS011;30625;52.206;21.030;2023-03-01T06:00:44;61.28;;;26.42;;
44893;SDS011;30625;52.206;21.030;2023-03-01T06:03:12;61.90;;;26.77;;
44893;SDS011;30625;52.206;21.030;2023-03-01T06:05:39;64.57;;;27.10;;
44893;SDS011;30625;52.206;21.030;2023-03-01T06:08:05;67.03;;;28.50;;
44893;SDS011;30625;52.206;21.030;2023-03-01T06:10:31;61.97;;;26.92;;
44893;SDS011;30625;52.206;21.030;2023-03-01T06:12:57;63.05;;;26.05;;
44893;SDS011;30625;52.206;21.030;2023-03-01T06:15:23;66.22;;;26.45;;
44893;SDS011;30625;52.206;21.030;2023-03-01T06:17:49;56.90;;;26.38;;
44893;SDS011;30625;52.206;21.030;2023-03-01T06:22:41;66.22;;;25.00;;
44893;SDS011;30625;52.206;21.030;2023-03-01T06:25:10;63.95;;;27.27;;
44893;SDS011;30625;52.206;21.030;2023-03-01T06:27:37;60.88;;;26.83;;
44893;SDS011;30625;52.206;21.030;2023-03-01T06:30:03;56.40;;;26.45;;
44893;SDS011;30625;52.206;21.030;2023-03-01T06:32:30;63.58;;;27.73;;
44893;SDS011;30625;52.206;21.030;2023-03-01T06:34:57;64.85;;;26.33;;
44893;SDS011;30625;52.206;21.030;2023-03-01T06:39:49;59.78;;;26.50;;
44893;SDS011;30625;52.206;21.030;2023-03-01T06:42:15;56.75;;;24.55;;
44893;SDS011;30625;52.206;21.030;2023-03-01T06:47:06;54.25;;;25.10;;
44893;SDS011;30625;52.206;21.030;2023-03-01T06:49:32;54.42;;;24.48;;
44893;SDS011;30625;52.206;21.030;2023-03-01T06:51:58;52.92;;;24.55;;
44893;SDS011;30625;52.206;21.030;2023-03-01T06:54:23;53.53;;;24.75;;
44893;SDS011;30625;52.206;21.030;2023-03-01T06:56:49;60.10;;;26.25;;
44893;SDS011;30625;52.206;21.030;2023-03-01T06:59:16;53.97;;;24.65;;
44893;SDS011;30625;52.206;21.030;2023-03-01T07:01:42;55.08;;;24.33;;
44893;SDS011;30625;52.206;21.030;2023-03-01T07:04:08;59.22;;;24.60;;
44893;SDS011;30625;52.206;21.030;2023-03-01T07:09:00;55.22;;;24.95;;
44893;SDS011;30625;52.206;21.030;2023-03-01T07:11:26;57.25;;;23.83;;
44893;SDS011;30625;52.206;21.030;2023-03-01T07:13:51;52.35;;;24.70;;
44893;SDS011;30625;52.206;21.030;2023-03-01T07:16:17;54.38;;;23.70;;
44893;SDS011;30625;52.206;21.030;2023-03-01T07:18:43;55.58;;;25.33;;
44893;SDS011;30625;52.206;21.030;2023-03-01T07:21:09;54.50;;;23.35;;
44893;SDS011;30625;52.206;21.030;2023-03-01T07:23:37;55.65;;;23.48;;
44893;SDS011;30625;52.206;21.030;2023-03-01T07:26:03;56.72;;;24.98;;
44893;SDS011;30625;52.206;21.030;2023-03-01T07:28:28;51.05;;;23.02;;
44893;SDS011;30625;52.206;21.030;2023-03-01T07:31:00;53.30;;;23.95;;
44893;SDS011;30625;52.206;21.030;2023-03-01T07:33:26;47.67;;;23.60;;
44893;SDS011;30625;52.206;21.030;2023-03-01T07:35:55;49.30;;;23.38;;
44893;SDS011;30625;52.206;21.030;2023-03-01T07:38:25;53.13;;;24.02;;
44893;SDS011;30625;52.206;21.030;2023-03-01T07:40:52;44.90;;;22.00;;
44893;SDS011;30625;52.206;21.030;2023-03-01T07:43:18;51.60;;;22.65;;
44893;SDS011;30625;52.206;21.030;2023-03-01T07:45:45;52.55;;;23.15;;
44893;SDS011;30625;52.206;21.030;2023-03-01T07:48:11;44.17;;;21.27;;
44893;SDS011;30625;52.206;21.030;2023-03-01T07:50:36;50.50;;;23.25;;
44893;SDS011;30625;52.206;21.030;2023-03-01T07:53:02;45.90;;;21.05;;
44893;SDS011;30625;52.206;21.030;2023-03-01T07:55:28;45.47;;;21.52;;
44893;SDS011;30625;52.206;21.030;2023-03-01T07:57:53;42.33;;;20.77;;
44893;SDS011;30625;52.206;21.030;2023-03-01T08:00:19;40.67;;;19.30;;
44893;SDS011;30625;52.206;21.030;2023-03-01T08:02:45;39.45;;;19.17;;
44893;SDS011;30625;52.206;21.030;2023-03-01T08:05:10;37.70;;;18.95;;
44893;SDS011;30625;52.206;21.030;2023-03-01T08:07:36;36.97;;;18.85;;
44893;SDS011;30625;52.206;21.030;2023-03-01T08:10:02;37.80;;;18.42;;
44893;SDS011;30625;52.206;21.030;2023-03-01T08:12:28;35.35;;;18.63;;
44893;SDS011;30625;52.206;21.030;2023-03-01T08:14:53;33.28;;;17.92;;
44893;SDS011;30625;52.206;21.030;2023-03-01T08:17:19;31.40;;;16.67;;
44893;SDS011;30625;52.206;21.030;2023-03-01T08:19:45;31.45;;;17.77;;
44893;SDS011;30625;52.206;21.030;2023-03-01T08:22:11;31.40;;;16.88;;
44893;SDS011;30625;52.206;21.030;2023-03-01T08:24:36;32.70;;;17.67;;
44893;SDS011;30625;52.206;21.030;2023-03-01T08:27:02;33.80;;;17.55;;
44893;SDS011;30625;52.206;21.030;2023-03-01T08:29:30;32.33;;;17.70;;
44893;SDS011;30625;52.206;21.030;2023-03-01T08:31:56;34.67;;;16.95;;
44893;SDS011;30625;52.206;21.030;2023-03-01T08:34:21;35.10;;;18.13;;
44893;SDS011;30625;52.206;21.030;2023-03-01T08:36:47;31.23;;;17.25;;
44893;SDS011;30625;52.206;21.030;2023-03-01T08:39:16;36.22;;;17.52;;
44893;SDS011;30625;52.206;21.030;2023-03-01T08:41:43;38.45;;;16.75;;
44893;SDS011;30625;52.206;21.030;2023-03-01T08:44:09;37.42;;;16.17;;
44893;SDS011;30625;52.206;21.030;2023-03-01T08:46:37;31.52;;;16.40;;
44893;SDS011;30625;52.206;21.030;2023-03-01T08:49:08;35.67;;;17.25;;
44893;SDS011;30625;52.206;21.030;2023-03-01T08:51:35;30.15;;;16.88;;
44893;SDS011;30625;52.206;21.030;2023-03-01T08:54:02;37.30;;;18.13;;
44893;SDS011;30625;52.206;21.030;2023-03-01T08:56:29;37.30;;;18.38;;
44893;SDS011;30625;52.206;21.030;2023-03-01T08:58:57;34.25;;;17.25;;
44893;SDS011;30625;52.206;21.030;2023-03-01T09:01:23;41.30;;;19.42;;
44893;SDS011;30625;52.206;21.030;2023-03-01T09:03:49;37.55;;;17.60;;
44893;SDS011;30625;52.206;21.030;2023-03-01T09:06:14;31.50;;;17.38;;
44893;SDS011;30625;52.206;21.030;2023-03-01T09:08:42;31.17;;;16.50;;
44893;SDS011;30625;52.206;21.030;2023-03-01T09:11:10;31.23;;;16.95;;
44893;SDS011;30625;52.206;21.030;2023-03-01T09:13:37;35.17;;;18.02;;
44893;SDS011;30625;52.206;21.030;2023-03-01T09:16:03;33.28;;;17.67;;
44893;SDS011;30625;52.206;21.030;2023-03-01T09:18:30;35.83;;;18.60;;
44893;SDS011;30625;52.206;21.030;2023-03-01T09:21:00;36.92;;;18.67;;
44893;SDS011;30625;52.206;21.030;2023-03-01T09:28:44;30.77;;;16.85;;
44893;SDS011;30625;52.206;21.030;2023-03-01T09:31:11;37.60;;;17.52;;
44893;SDS011;30625;52.206;21.030;2023-03-01T09:33:37;30.90;;;17.63;;
44893;SDS011;30625;52.206;21.030;2023-03-01T09:36:05;36.45;;;18.40;;
44893;SDS011;30625;52.206;21.030;2023-03-01T09:38:33;35.65;;;18.30;;
44893;SDS011;30625;52.206;21.030;2023-03-01T09:40:59;36.75;;;18.30;;
44893;SDS011;30625;52.206;21.030;2023-03-01T09:46:09;28.60;;;15.63;;
44893;SDS011;30625;52.206;21.030;2023-03-01T09:48:41;31.55;;;16.52;;
44893;SDS011;30625;52.206;21.030;2023-03-01T09:51:46;31.90;;;15.90;;
44893;SDS011;30625;52.206;21.030;2023-03-01T09:54:03;35.47;;;17.33;;
44893;SDS011;30625;52.206;21.030;2023-03-01T09:56:32;30.45;;;16.02;;
44893;SDS011;30625;52.206;21.030;2023-03-01T09:59:02;30.23;;;15.55;;
44893;SDS011;30625;52.206;21.030;2023-03-01T10:09:39;29.05;;;15.10;;
44893;SDS011;30625;52.206;21.030;2023-03-01T10:12:11;25.83;;;13.38;;
44893;SDS011;30625;52.206;21.030;2023-03-01T10:14:57;27.25;;;15.05;;
44893;SDS011;30625;52.206;21.030;2023-03-01T10:17:47;24.55;;;14.18;;
44893;SDS011;30625;52.206;21.030;2023-03-01T10:20:24;24.40;;;13.35;;
44893;SDS011;30625;52.206;21.030;2023-03-01T10:22:55;22.67;;;12.60;;
44893;SDS011;30625;52.206;21.030;2023-03-01T10:25:23;24.17;;;12.88;;
44893;SDS011;30625;52.206;21.030;2023-03-01T10:28:38;24.65;;;13.07;;
44893;SDS011;30625;52.206;21.030;2023-03-01T10:31:01;26.55;;;13.40;;
44893;SDS011;30625;52.206;21.030;2023-03-01T10:33:32;22.80;;;12.07;;
44893;SDS011;30625;52.206;21.030;2023-03-01T10:36:01;20.88;;;11.75;;
44893;SDS011;30625;52.206;21.030;2023-03-01T10:38:27;23.77;;;11.73;;
44893;SDS011;30625;52.206;21.030;2023-03-01T10:40:56;24.23;;;12.15;;
44893;SDS011;30625;52.206;21.030;2023-03-01T10:43:23;28.23;;;13.00;;
44893;SDS011;30625;52.206;21.030;2023-03-01T10:45:50;22.67;;;11.93;;
44893;SDS011;30625;52.206;21.030;2023-03-01T10:48:17;28.10;;;13.38;;
44893;SDS011;30625;52.206;21.030;2023-03-01T10:50:50;22.42;;;12.18;;
44893;SDS011;30625;52.206;21.030;2023-03-01T10:54:09;21.50;;;10.68;;
44893;SDS011;30625;52.206;21.030;2023-03-01T10:56:22;22.20;;;10.77;;
44893;SDS011;30625;52.206;21.030;2023-03-01T10:58:58;19.25;;;10.88;;
44893;SDS011;30625;52.206;21.030;2023-03-01T11:01:29;18.63;;;10.82;;
44893;SDS011;30625;52.206;21.030;2023-03-01T11:06:30;16.10;;;8.98;;
44893;SDS011;30625;52.206;21.030;2023-03-01T11:08:57;16.55;;;9.10;;
44893;SDS011;30625;52.206;21.030;2023-03-01T11:11:45;19.23;;;9.68;;
44893;SDS011;30625;52.206;21.030;2023-03-01T11:16:44;20.60;;;9.98;;
44893;SDS011;30625;52.206;21.030;2023-03-01T11:21:37;16.88;;;9.38;;
44893;SDS011;30625;52.206;21.030;2023-03-01T11:24:12;18.85;;;9.07;;
44893;SDS011;30625;52.206;21.030;2023-03-01T11:26:40;20.25;;;10.05;;
44893;SDS011;30625;52.206;21.030;2023-03-01T11:29:30;17.20;;;9.45;;
44893;SDS011;30625;52.206;21.030;2023-03-01T11:32:02;18.13;;;9.85;;
44893;SDS011;30625;52.206;21.030;2023-03-01T11:34:36;17.15;;;9.75;;
44893;SDS011;30625;52.206;21.030;2023-03-01T11:37:03;22.80;;;11.23;;
44893;SDS011;30625;52.206;21.030;2023-03-01T11:39:37;18.38;;;9.23;;
44893;SDS011;30625;52.206;21.030;2023-03-01T11:45:09;16.67;;;8.85;;
44893;SDS011;30625;52.206;21.030;2023-03-01T11:50:45;18.05;;;9.68;;
44893;SDS011;30625;52.206;21.030;2023-03-01T11:55:58;20.40;;;9.30;;
44893;SDS011;30625;52.206;21.030;2023-03-01T11:58:45;17.27;;;9.13;;
44893;SDS011;30625;52.206;21.030;2023-03-01T12:07:35;16.40;;;9.23;;
44893;SDS011;30625;52.206;21.030;2023-03-01T12:10:28;19.10;;;10.20;;
44893;SDS011;30625;52.206;21.030;2023-03-01T12:18:42;20.73;;;10.93;;
44893;SDS011;30625;52.206;21.030;2023-03-01T12:21:32;19.50;;;9.80;;
44893;SDS011;30625;52.206;21.030;2023-03-01T12:24:42;16.17;;;9.32;;
44893;SDS011;30625;52.206;21.030;2023-03-01T12:32:55;23.73;;;10.27;;
44893;SDS011;30625;52.206;21.030;2023-03-01T12:38:25;21.83;;;10.57;;
44893;SDS011;30625;52.206;21.030;2023-03-01T12:49:51;19.25;;;8.98;;
44893;SDS011;30625;52.206;21.030;2023-03-01T12:55:08;21.52;;;10.02;;
44893;SDS011;30625;52.206;21.030;2023-03-01T13:00:44;23.17;;;12.02;;
44893;SDS011;30625;52.206;21.030;2023-03-01T13:03:19;19.70;;;10.27;;
44893;SDS011;30625;52.206;21.030;2023-03-01T13:06:00;18.40;;;10.00;;
44893;SDS011;30625;52.206;21.030;2023-03-01T13:08:43;19.80;;;10.60;;
44893;SDS011;30625;52.206;21.030;2023-03-01T13:11:33;19.23;;;9.63;;
44893;SDS011;30625;52.206;21.030;2023-03-01T13:14:44;24.42;;;9.90;;
44893;SDS011;30625;52.206;21.030;2023-03-01T13:16:49;16.98;;;9.02;;
44893;SDS011;30625;52.206;21.030;2023-03-01T13:19:17;24.48;;;10.95;;
44893;SDS011;30625;52.206;21.030;2023-03-01T13:21:45;21.02;;;10.18;;
44893;SDS011;30625;52.206;21.030;2023-03-01T13:24:25;19.38;;;9.52;;
44893;SDS011;30625;52.206;21.030;2023-03-01T13:27:09;19.63;;;9.60;;
44893;SDS011;30625;52.206;21.030;2023-03-01T13:29:58;19.98;;;10.52;;
44893;SDS011;30625;52.206;21.030;2023-03-01T13:32:31;18.55;;;9.45;;
44893;SDS011;30625;52.206;21.030;2023-03-01T13:35:03;17.42;;;9.75;;
44893;SDS011;30625;52.206;21.030;2023-03-01T13:37:48;18.25;;;9.30;;
44893;SDS011;30625;52.206;21.030;2023-03-01T13:45:15;18.98;;;9.52;;
44893;SDS011;30625;52.206;21.030;2023-03-01T13:47:41;22.08;;;10.82;;
44893;SDS011;30625;52.206;21.030;2023-03-01T13:50:16;19.45;;;10.40;;
44893;SDS011;30625;52.206;21.030;2023-03-01T13:52:48;22.42;;;9.82;;
44893;SDS011;30625;52.206;21.030;2023-03-01T13:55:19;33.15;;;10.27;;
44893;SDS011;30625;52.206;21.030;2023-03-01T13:57:50;21.30;;;9.32;;
44893;SDS011;30625;52.206;21.030;2023-03-01T14:00:37;19.15;;;9.93;;
44893;SDS011;30625;52.206;21.030;2023-03-01T14:03:16;18.45;;;9.88;;
44893;SDS011;30625;52.206;21.030;2023-03-01T14:05:53;16.25;;;8.90;;
44893;SDS011;30625;52.206;21.030;2023-03-01T14:08:23;21.98;;;10.02;;
44893;SDS011;30625;52.206;21.030;2023-03-01T14:11:04;20.92;;;10.70;;
44893;SDS011;30625;52.206;21.030;2023-03-01T14:19:37;19.88;;;10.57;;
44893;SDS011;30625;52.206;21.030;2023-03-01T14:24:38;15.93;;;9.20;;
44893;SDS011;30625;52.206;21.030;2023-03-01T14:27:11;24.30;;;10.65;;
44893;SDS011;30625;52.206;21.030;2023-03-01T14:29:38;22.65;;;10.48;;
44893;SDS011;30625;52.206;21.030;2023-03-01T14:32:11;19.90;;;10.15;;
44893;SDS011;30625;52.206;21.030;2023-03-01T14:34:49;21.08;;;10.77;;
44893;SDS011;30625;52.206;21.030;2023-03-01T14:39:50;18.95;;;11.00;;
44893;SDS011;30625;52.206;21.030;2023-03-01T14:42:17;23.67;;;11.55;;
44893;SDS011;30625;52.206;21.030;2023-03-01T14:44:46;24.05;;;11.23;;
44893;SDS011;30625;52.206;21.030;2023-03-01T14:47:15;21.35;;;11.07;;
44893;SDS011;30625;52.206;21.030;2023-03-01T14:49:49;22.75;;;10.70;;
44893;SDS011;30625;52.206;21.030;2023-03-01T14:52:21;17.45;;;9.77;;
44893;SDS011;30625;52.206;21.030;2023-03-01T14:54:51;20.88;;;9.80;;
44893;SDS011;30625;52.206;21.030;2023-03-01T14:57:21;19.58;;;10.00;;
44893;SDS011;30625;52.206;21.030;2023-03-01T14:59:51;18.63;;;10.00;;
44893;SDS011;30625;52.206;21.030;2023-03-01T15:02:20;21.15;;;10.57;;
44893;SDS011;30625;52.206;21.030;2023-03-01T15:04:52;22.00;;;10.27;;
44893;SDS011;30625;52.206;21.030;2023-03-01T15:07:21;24.15;;;11.43;;
44893;SDS011;30625;52.206;21.030;2023-03-01T15:09:51;21.27;;;10.95;;
44893;SDS011;30625;52.206;21.030;2023-03-01T15:14:52;20.60;;;10.77;;
44893;SDS011;30625;52.206;21.030;2023-03-01T15:17:37;18.40;;;10.35;;
44893;SDS011;30625;52.206;21.030;2023-03-01T15:20:05;20.30;;;11.35;;
44893;SDS011;30625;52.206;21.030;2023-03-01T15:22:43;23.73;;;11.05;;
44893;SDS011;30625;52.206;21.030;2023-03-01T15:25:16;21.00;;;10.88;;
44893;SDS011;30625;52.206;21.030;2023-03-01T15:27:48;22.85;;;11.35;;
44893;SDS011;30625;52.206;21.030;2023-03-01T15:30:19;19.40;;;10.52;;
44893;SDS011;30625;52.206;21.030;2023-03-01T15:32:48;21.15;;;11.43;;
44893;SDS011;30625;52.206;21.030;2023-03-01T15:35:47;24.80;;;11.50;;
44893;SDS011;30625;52.206;21.030;2023-03-01T15:38:23;22.75;;;11.52;;
44893;SDS011;30625;52.206;21.030;2023-03-01T15:41:22;19.25;;;10.70;;
44893;SDS011;30625;52.206;21.030;2023-03-01T15:43:50;23.42;;;11.02;;
44893;SDS011;30625;52.206;21.030;2023-03-01T15:46:30;19.25;;;10.38;;
44893;SDS011;30625;52.206;21.030;2023-03-01T15:48:59;23.45;;;11.25;;
44893;SDS011;30625;52.206;21.030;2023-03-01T15:51:29;21.40;;;10.80;;
44893;SDS011;30625;52.206;21.030;2023-03-01T15:54:13;22.10;;;11.20;;
44893;SDS011;30625;52.206;21.030;2023-03-01T15:56:43;27.75;;;12.65;;
44893;SDS011;30625;52.206;21.030;2023-03-01T15:59:09;22.98;;;11.55;;
44893;SDS011;30625;52.206;21.030;2023-03-01T16:01:40;23.88;;;11.00;;
44893;SDS011;30625;52.206;21.030;2023-03-01T16:04:06;24.73;;;11.38;;
44893;SDS011;30625;52.206;21.030;2023-03-01T16:06:33;24.65;;;11.63;;
44893;SDS011;30625;52.206;21.030;2023-03-01T16:09:00;23.63;;;10.77;;
44893;SDS011;30625;52.206;21.030;2023-03-01T16:11:27;28.42;;;12.38;;
44893;SDS011;30625;52.206;21.030;2023-03-01T16:13:53;25.42;;;11.85;;
44893;SDS011;30625;52.206;21.030;2023-03-01T16:16:18;27.77;;;11.48;;
44893;SDS011;30625;52.206;21.030;2023-03-01T16:18:45;23.25;;;10.10;;
44893;SDS011;30625;52.206;21.030;2023-03-01T16:21:13;29.63;;;12.88;;
44893;SDS011;30625;52.206;21.030;2023-03-01T16:23:41;24.70;;;11.48;;
44893;SDS011;30625;52.206;21.030;2023-03-01T16:26:07;25.83;;;12.18;;
44893;SDS011;30625;52.206;21.030;2023-03-01T16:28:33;24.13;;;11.75;;